sensor_id;sensor_type;location;lat;lon;timestamp;temperature;humidity
48589;DHT22;34369;51.174;6.738;2022-11-06T00:01:44;7.50;84.30
48589;DHT22;34369;51.174;6.738;2022-11-06T00:04:17;7.60;84.40
48589;DHT22;34369;51.174;6.738;2022-11-06T00:06:49;7.60;84.70
48589;DHT22;34369;51.174;6.738;2022-11-06T00:09:21;7.50;84.90
48589;DHT22;34369;51.174;6.738;2022-11-06T00:11:56;7.50;85.00
48589;DHT22;34369;51.174;6.738;2022-11-06T00:14:29;7.50;85.10
48589;DHT22;34369;51.174;6.738;2022-11-06T00:17:01;7.40;85.10
48589;DHT22;34369;51.174;6.738;2022-11-06T00:19:33;7.50;85.20
48589;DHT22;34369;51.174;6.738;2022-11-06T00:22:06;7.50;85.00
48589;DHT22;34369;51.174;6.738;2022-11-06T00:24:38;7.50;85.40
48589;DHT22;34369;51.174;6.738;2022-11-06T00:27:12;7.40;85.50
48589;DHT22;34369;51.174;6.738;2022-11-06T00:29:45;7.50;85.50
48589;DHT22;34369;51.174;6.738;2022-11-06T00:32:20;7.40;85.70
48589;DHT22;34369;51.174;6.738;2022-11-06T00:34:52;7.40;85.70
48589;DHT22;34369;51.174;6.738;2022-11-06T00:37:24;7.40;85.80
48589;DHT22;34369;51.174;6.738;2022-11-06T00:39:57;7.50;85.70
48589;DHT22;34369;51.174;6.738;2022-11-06T00:42:31;7.40;86.20
48589;DHT22;34369;51.174;6.738;2022-11-06T00:45:04;7.40;86.10
48589;DHT22;34369;51.174;6.738;2022-11-06T00:47:39;7.40;86.20
48589;DHT22;34369;51.174;6.738;2022-11-06T00:50:13;7.60;86.40
48589;DHT22;34369;51.174;6.738;2022-11-06T00:52:48;7.40;86.40
48589;DHT22;34369;51.174;6.738;2022-11-06T00:55:21;7.30;86.00
48589;DHT22;34369;51.174;6.738;2022-11-06T00:57:57;7.40;86.20
48589;DHT22;34369;51.174;6.738;2022-11-06T01:00:30;7.40;86.20
48589;DHT22;34369;51.174;6.738;2022-11-06T01:03:02;7.40;86.20
48589;DHT22;34369;51.174;6.738;2022-11-06T01:05:36;7.40;86.50
48589;DHT22;34369;51.174;6.738;2022-11-06T01:08:09;7.20;86.50
48589;DHT22;34369;51.174;6.738;2022-11-06T01:10:41;7.30;86.70
48589;DHT22;34369;51.174;6.738;2022-11-06T01:13:15;7.40;86.90
48589;DHT22;34369;51.174;6.738;2022-11-06T01:15:47;7.40;87.00
48589;DHT22;34369;51.174;6.738;2022-11-06T01:18:19;7.40;87.00
48589;DHT22;34369;51.174;6.738;2022-11-06T01:20:53;7.50;87.10
48589;DHT22;34369;51.174;6.738;2022-11-06T01:23:25;7.40;87.00
48589;DHT22;34369;51.174;6.738;2022-11-06T01:25:58;7.30;86.70
48589;DHT22;34369;51.174;6.738;2022-11-06T01:28:32;7.50;87.10
48589;DHT22;34369;51.174;6.738;2022-11-06T01:31:06;7.40;87.00
48589;DHT22;34369;51.174;6.738;2022-11-06T01:33:41;7.40;87.00
48589;DHT22;34369;51.174;6.738;2022-11-06T01:36:15;7.30;86.70
48589;DHT22;34369;51.174;6.738;2022-11-06T01:38:50;7.50;87.00
48589;DHT22;34369;51.174;6.738;2022-11-06T01:41:29;7.40;87.00
48589;DHT22;34369;51.174;6.738;2022-11-06T01:44:06;7.60;86.80
48589;DHT22;34369;51.174;6.738;2022-11-06T01:46:54;7.40;86.90
48589;DHT22;34369;51.174;6.738;2022-11-06T01:49:27;7.50;87.00
48589;DHT22;34369;51.174;6.738;2022-11-06T01:52:05;7.50;86.90
48589;DHT22;34369;51.174;6.738;2022-11-06T01:54:40;7.50;86.80
48589;DHT22;34369;51.174;6.738;2022-11-06T01:57:15;7.50;86.80
48589;DHT22;34369;51.174;6.738;2022-11-06T01:59:49;7.60;86.90
48589;DHT22;34369;51.174;6.738;2022-11-06T02:04:57;7.30;86.70
48589;DHT22;34369;51.174;6.738;2022-11-06T02:07:29;7.70;86.80
48589;DHT22;34369;51.174;6.738;2022-11-06T02:10:01;7.50;86.30
48589;DHT22;34369;51.174;6.738;2022-11-06T02:12:57;7.60;86.60
48589;DHT22;34369;51.174;6.738;2022-11-06T02:15:45;7.50;86.80
48589;DHT22;34369;51.174;6.738;2022-11-06T02:18:34;7.60;86.50
48589;DHT22;34369;51.174;6.738;2022-11-06T02:21:53;7.60;86.40
48589;DHT22;34369;51.174;6.738;2022-11-06T02:24:48;7.50;86.70
48589;DHT22;34369;51.174;6.738;2022-11-06T02:27:32;7.50;86.60
48589;DHT22;34369;51.174;6.738;2022-11-06T02:30:07;7.60;86.20
48589;DHT22;34369;51.174;6.738;2022-11-06T02:32:45;7.50;86.40
48589;DHT22;34369;51.174;6.738;2022-11-06T02:35:24;7.40;86.50
48589;DHT22;34369;51.174;6.738;2022-11-06T02:38:03;7.60;86.70
48589;DHT22;34369;51.174;6.738;2022-11-06T02:40:42;7.50;86.60
48589;DHT22;34369;51.174;6.738;2022-11-06T02:43:19;7.50;86.70
48589;DHT22;34369;51.174;6.738;2022-11-06T02:45:54;7.60;87.00
48589;DHT22;34369;51.174;6.738;2022-11-06T02:48:32;7.60;87.10
48589;DHT22;34369;51.174;6.738;2022-11-06T02:51:11;7.60;86.40
48589;DHT22;34369;51.174;6.738;2022-11-06T02:53:47;7.60;86.40
48589;DHT22;34369;51.174;6.738;2022-11-06T02:56:22;7.60;86.10
48589;DHT22;34369;51.174;6.738;2022-11-06T02:59:00;7.50;86.20
48589;DHT22;34369;51.174;6.738;2022-11-06T03:01:36;7.60;86.30
48589;DHT22;34369;51.174;6.738;2022-11-06T03:04:15;7.50;86.00
48589;DHT22;34369;51.174;6.738;2022-11-06T03:06:52;7.50;86.30
48589;DHT22;34369;51.174;6.738;2022-11-06T03:09:31;7.50;86.20
48589;DHT22;34369;51.174;6.738;2022-11-06T03:12:08;7.50;86.00
48589;DHT22;34369;51.174;6.738;2022-11-06T03:14:54;7.50;86.30
48589;DHT22;34369;51.174;6.738;2022-11-06T03:17:36;7.40;86.20
48589;DHT22;34369;51.174;6.738;2022-11-06T03:20:16;7.50;86.50
48589;DHT22;34369;51.174;6.738;2022-11-06T03:22:56;7.40;86.30
48589;DHT22;34369;51.174;6.738;2022-11-06T03:25:42;7.40;86.40
48589;DHT22;34369;51.174;6.738;2022-11-06T03:28:23;7.30;86.40
48589;DHT22;34369;51.174;6.738;2022-11-06T03:31:03;7.40;86.50
48589;DHT22;34369;51.174;6.738;2022-11-06T03:33:39;7.50;86.50
48589;DHT22;34369;51.174;6.738;2022-11-06T03:36:17;7.30;86.20
48589;DHT22;34369;51.174;6.738;2022-11-06T03:38:54;7.20;86.30
48589;DHT22;34369;51.174;6.738;2022-11-06T03:41:33;7.30;86.40
48589;DHT22;34369;51.174;6.738;2022-11-06T03:44:12;7.30;86.20
48589;DHT22;34369;51.174;6.738;2022-11-06T03:46:56;7.40;86.50
48589;DHT22;34369;51.174;6.738;2022-11-06T03:49:34;7.30;86.40
48589;DHT22;34369;51.174;6.738;2022-11-06T03:52:13;7.30;86.10
48589;DHT22;34369;51.174;6.738;2022-11-06T03:54:51;7.20;86.30
48589;DHT22;34369;51.174;6.738;2022-11-06T03:57:35;7.30;86.40
48589;DHT22;34369;51.174;6.738;2022-11-06T04:00:11;7.30;86.10
48589;DHT22;34369;51.174;6.738;2022-11-06T04:02:49;7.20;86.40
48589;DHT22;34369;51.174;6.738;2022-11-06T04:05:36;7.40;86.50
48589;DHT22;34369;51.174;6.738;2022-11-06T04:08:12;7.20;86.20
48589;DHT22;34369;51.174;6.738;2022-11-06T04:11:05;7.20;86.50
48589;DHT22;34369;51.174;6.738;2022-11-06T04:13:57;7.30;86.30
48589;DHT22;34369;51.174;6.738;2022-11-06T04:16:34;7.30;86.40
48589;DHT22;34369;51.174;6.738;2022-11-06T04:19:13;7.20;86.60
48589;DHT22;34369;51.174;6.738;2022-11-06T04:22:01;7.20;86.50
48589;DHT22;34369;51.174;6.738;2022-11-06T04:24:53;7.10;86.50
48589;DHT22;34369;51.174;6.738;2022-11-06T04:28:00;7.10;86.90
48589;DHT22;34369;51.174;6.738;2022-11-06T04:30:55;7.10;87.00
48589;DHT22;34369;51.174;6.738;2022-11-06T04:33:36;7.20;87.20
48589;DHT22;34369;51.174;6.738;2022-11-06T04:36:26;7.10;87.10
48589;DHT22;34369;51.174;6.738;2022-11-06T04:39:09;7.20;87.50
48589;DHT22;34369;51.174;6.738;2022-11-06T04:41:53;7.10;87.60
48589;DHT22;34369;51.174;6.738;2022-11-06T04:44:32;7.00;87.80
48589;DHT22;34369;51.174;6.738;2022-11-06T04:47:11;7.00;87.70
48589;DHT22;34369;51.174;6.738;2022-11-06T04:49:47;7.00;87.70
48589;DHT22;34369;51.174;6.738;2022-11-06T04:52:25;7.10;87.90
48589;DHT22;34369;51.174;6.738;2022-11-06T04:54:59;7.10;87.90
48589;DHT22;34369;51.174;6.738;2022-11-06T04:57:31;7.00;87.90
48589;DHT22;34369;51.174;6.738;2022-11-06T05:00:06;7.20;88.10
48589;DHT22;34369;51.174;6.738;2022-11-06T05:02:41;7.20;88.20
48589;DHT22;34369;51.174;6.738;2022-11-06T05:05:13;7.10;88.20
48589;DHT22;34369;51.174;6.738;2022-11-06T05:07:47;7.10;88.30
48589;DHT22;34369;51.174;6.738;2022-11-06T05:10:19;7.20;88.50
48589;DHT22;34369;51.174;6.738;2022-11-06T05:12:51;7.20;88.50
48589;DHT22;34369;51.174;6.738;2022-11-06T05:15:23;7.20;88.60
48589;DHT22;34369;51.174;6.738;2022-11-06T05:17:58;7.20;88.30
48589;DHT22;34369;51.174;6.738;2022-11-06T05:20:30;7.20;88.60
48589;DHT22;34369;51.174;6.738;2022-11-06T05:23:04;7.10;88.50
48589;DHT22;34369;51.174;6.738;2022-11-06T05:25:37;7.20;88.80
48589;DHT22;34369;51.174;6.738;2022-11-06T05:28:10;7.20;88.40
48589;DHT22;34369;51.174;6.738;2022-11-06T05:30:44;7.40;88.70
48589;DHT22;34369;51.174;6.738;2022-11-06T05:33:16;7.30;88.70
48589;DHT22;34369;51.174;6.738;2022-11-06T05:35:48;7.30;88.90
48589;DHT22;34369;51.174;6.738;2022-11-06T05:38:22;7.30;89.00
48589;DHT22;34369;51.174;6.738;2022-11-06T05:40:55;7.40;89.00
48589;DHT22;34369;51.174;6.738;2022-11-06T05:43:27;7.50;89.10
48589;DHT22;34369;51.174;6.738;2022-11-06T05:46:01;7.40;88.70
48589;DHT22;34369;51.174;6.738;2022-11-06T05:48:34;7.40;88.90
48589;DHT22;34369;51.174;6.738;2022-11-06T05:51:07;7.50;88.80
48589;DHT22;34369;51.174;6.738;2022-11-06T05:53:41;7.50;88.70
48589;DHT22;34369;51.174;6.738;2022-11-06T05:56:13;7.50;88.40
48589;DHT22;34369;51.174;6.738;2022-11-06T05:58:44;7.60;88.60
48589;DHT22;34369;51.174;6.738;2022-11-06T06:01:18;7.70;88.50
48589;DHT22;34369;51.174;6.738;2022-11-06T06:03:50;7.60;88.10
48589;DHT22;34369;51.174;6.738;2022-11-06T06:06:24;7.60;88.00
48589;DHT22;34369;51.174;6.738;2022-11-06T06:09:00;7.60;88.20
48589;DHT22;34369;51.174;6.738;2022-11-06T06:11:32;7.70;88.10
48589;DHT22;34369;51.174;6.738;2022-11-06T06:14:04;7.70;87.80
48589;DHT22;34369;51.174;6.738;2022-11-06T06:16:38;7.70;88.20
48589;DHT22;34369;51.174;6.738;2022-11-06T06:19:10;7.60;87.80
48589;DHT22;34369;51.174;6.738;2022-11-06T06:21:44;7.80;87.90
48589;DHT22;34369;51.174;6.738;2022-11-06T06:24:18;7.60;87.70
48589;DHT22;34369;51.174;6.738;2022-11-06T06:26:51;7.60;88.00
48589;DHT22;34369;51.174;6.738;2022-11-06T06:29:24;7.80;87.90
48589;DHT22;34369;51.174;6.738;2022-11-06T06:31:56;7.70;87.80
48589;DHT22;34369;51.174;6.738;2022-11-06T06:34:28;7.60;87.70
48589;DHT22;34369;51.174;6.738;2022-11-06T06:37:00;7.70;87.90
48589;DHT22;34369;51.174;6.738;2022-11-06T06:39:35;7.60;88.10
48589;DHT22;34369;51.174;6.738;2022-11-06T06:42:07;7.60;87.80
48589;DHT22;34369;51.174;6.738;2022-11-06T06:44:42;7.60;87.80
48589;DHT22;34369;51.174;6.738;2022-11-06T06:47:14;7.70;87.90
48589;DHT22;34369;51.174;6.738;2022-11-06T06:49:47;7.70;87.90
48589;DHT22;34369;51.174;6.738;2022-11-06T06:52:21;7.60;87.80
48589;DHT22;34369;51.174;6.738;2022-11-06T06:54:56;7.70;87.80
48589;DHT22;34369;51.174;6.738;2022-11-06T06:57:28;7.70;87.90
48589;DHT22;34369;51.174;6.738;2022-11-06T07:00:01;7.80;87.70
48589;DHT22;34369;51.174;6.738;2022-11-06T07:02:35;7.80;87.90
48589;DHT22;34369;51.174;6.738;2022-11-06T07:05:07;7.80;88.00
48589;DHT22;34369;51.174;6.738;2022-11-06T07:07:41;7.80;88.00
48589;DHT22;34369;51.174;6.738;2022-11-06T07:10:15;7.80;87.90
48589;DHT22;34369;51.174;6.738;2022-11-06T07:12:48;7.80;88.10
48589;DHT22;34369;51.174;6.738;2022-11-06T07:15:21;7.90;88.20
48589;DHT22;34369;51.174;6.738;2022-11-06T07:17:53;7.90;88.20
48589;DHT22;34369;51.174;6.738;2022-11-06T07:20:25;7.90;88.20
48589;DHT22;34369;51.174;6.738;2022-11-06T07:22:59;8.00;88.20
48589;DHT22;34369;51.174;6.738;2022-11-06T07:25:38;8.10;88.00
48589;DHT22;34369;51.174;6.738;2022-11-06T07:28:10;8.20;87.70
48589;DHT22;34369;51.174;6.738;2022-11-06T07:30:42;8.20;87.80
48589;DHT22;34369;51.174;6.738;2022-11-06T07:33:14;8.20;87.50
48589;DHT22;34369;51.174;6.738;2022-11-06T07:35:47;8.30;87.40
48589;DHT22;34369;51.174;6.738;2022-11-06T07:38:19;8.40;87.40
48589;DHT22;34369;51.174;6.738;2022-11-06T07:40:53;8.30;87.40
48589;DHT22;34369;51.174;6.738;2022-11-06T07:43:25;8.60;87.60
48589;DHT22;34369;51.174;6.738;2022-11-06T07:45:58;8.60;87.50
48589;DHT22;34369;51.174;6.738;2022-11-06T07:48:32;8.70;87.60
48589;DHT22;34369;51.174;6.738;2022-11-06T07:51:06;8.80;87.60
48589;DHT22;34369;51.174;6.738;2022-11-06T07:53:39;8.90;87.50
48589;DHT22;34369;51.174;6.738;2022-11-06T07:56:13;8.90;87.20
48589;DHT22;34369;51.174;6.738;2022-11-06T07:58:47;9.00;87.20
48589;DHT22;34369;51.174;6.738;2022-11-06T08:01:19;9.20;87.00
48589;DHT22;34369;51.174;6.738;2022-11-06T08:03:51;9.10;86.60
48589;DHT22;34369;51.174;6.738;2022-11-06T08:06:23;9.30;87.00
48589;DHT22;34369;51.174;6.738;2022-11-06T08:11:29;9.50;85.10
48589;DHT22;34369;51.174;6.738;2022-11-06T08:14:02;9.40;84.60
48589;DHT22;34369;51.174;6.738;2022-11-06T08:16:34;9.50;84.90
48589;DHT22;34369;51.174;6.738;2022-11-06T08:19:06;9.60;84.70
48589;DHT22;34369;51.174;6.738;2022-11-06T08:21:38;9.60;84.80
48589;DHT22;34369;51.174;6.738;2022-11-06T08:24:10;9.80;84.70
48589;DHT22;34369;51.174;6.738;2022-11-06T08:26:44;10.10;84.30
48589;DHT22;34369;51.174;6.738;2022-11-06T08:29:16;10.10;84.00
48589;DHT22;34369;51.174;6.738;2022-11-06T08:31:49;10.30;83.30
48589;DHT22;34369;51.174;6.738;2022-11-06T08:34:21;10.50;82.80
48589;DHT22;34369;51.174;6.738;2022-11-06T08:39:25;10.50;82.50
48589;DHT22;34369;51.174;6.738;2022-11-06T08:41:59;10.60;82.20
48589;DHT22;34369;51.174;6.738;2022-11-06T08:47:03;10.60;81.20
48589;DHT22;34369;51.174;6.738;2022-11-06T08:49:39;10.70;81.10
48589;DHT22;34369;51.174;6.738;2022-11-06T08:52:11;10.60;80.80
48589;DHT22;34369;51.174;6.738;2022-11-06T08:54:43;10.60;80.80
48589;DHT22;34369;51.174;6.738;2022-11-06T08:57:17;10.80;81.10
48589;DHT22;34369;51.174;6.738;2022-11-06T08:59:49;10.80;81.60
48589;DHT22;34369;51.174;6.738;2022-11-06T09:02:22;10.90;81.60
48589;DHT22;34369;51.174;6.738;2022-11-06T09:04:54;10.90;81.50
48589;DHT22;34369;51.174;6.738;2022-11-06T09:07:26;11.00;80.90
48589;DHT22;34369;51.174;6.738;2022-11-06T09:09:58;11.10;80.50
48589;DHT22;34369;51.174;6.738;2022-11-06T09:12:32;11.20;80.80
48589;DHT22;34369;51.174;6.738;2022-11-06T09:15:05;11.20;79.90
48589;DHT22;34369;51.174;6.738;2022-11-06T09:17:41;11.30;79.80
48589;DHT22;34369;51.174;6.738;2022-11-06T09:20:15;11.40;79.40
48589;DHT22;34369;51.174;6.738;2022-11-06T09:22:48;11.40;78.90
48589;DHT22;34369;51.174;6.738;2022-11-06T09:25:23;11.60;78.80
48589;DHT22;34369;51.174;6.738;2022-11-06T09:27:57;11.50;79.40
48589;DHT22;34369;51.174;6.738;2022-11-06T09:30:31;11.60;78.50
48589;DHT22;34369;51.174;6.738;2022-11-06T09:33:06;11.70;78.40
48589;DHT22;34369;51.174;6.738;2022-11-06T09:35:39;11.70;78.20
48589;DHT22;34369;51.174;6.738;2022-11-06T09:38:12;11.70;78.00
48589;DHT22;34369;51.174;6.738;2022-11-06T09:40:48;11.70;77.60
48589;DHT22;34369;51.174;6.738;2022-11-06T09:43:30;11.60;77.40
48589;DHT22;34369;51.174;6.738;2022-11-06T09:46:16;11.70;77.10
48589;DHT22;34369;51.174;6.738;2022-11-06T09:48:57;11.80;76.80
48589;DHT22;34369;51.174;6.738;2022-11-06T09:51:35;11.80;77.00
48589;DHT22;34369;51.174;6.738;2022-11-06T09:54:15;11.80;76.90
48589;DHT22;34369;51.174;6.738;2022-11-06T09:56:54;11.70;76.70
48589;DHT22;34369;51.174;6.738;2022-11-06T09:59:35;11.70;76.70
48589;DHT22;34369;51.174;6.738;2022-11-06T10:02:19;11.80;76.90
48589;DHT22;34369;51.174;6.738;2022-11-06T10:05:01;11.80;76.90
48589;DHT22;34369;51.174;6.738;2022-11-06T10:07:40;11.80;76.00
48589;DHT22;34369;51.174;6.738;2022-11-06T10:10:15;11.80;76.60
48589;DHT22;34369;51.174;6.738;2022-11-06T10:15:59;11.90;76.80
48589;DHT22;34369;51.174;6.738;2022-11-06T10:18:42;12.00;76.40
48589;DHT22;34369;51.174;6.738;2022-11-06T10:21:23;12.00;76.30
48589;DHT22;34369;51.174;6.738;2022-11-06T10:23:57;12.10;76.30
48589;DHT22;34369;51.174;6.738;2022-11-06T10:26:35;12.20;76.20
48589;DHT22;34369;51.174;6.738;2022-11-06T10:29:29;12.30;75.80
48589;DHT22;34369;51.174;6.738;2022-11-06T10:35:39;12.20;75.80
48589;DHT22;34369;51.174;6.738;2022-11-06T10:38:17;12.30;75.00
48589;DHT22;34369;51.174;6.738;2022-11-06T10:40:54;12.40;75.60
48589;DHT22;34369;51.174;6.738;2022-11-06T10:43:30;12.40;75.60
48589;DHT22;34369;51.174;6.738;2022-11-06T10:46:11;12.40;75.00
48589;DHT22;34369;51.174;6.738;2022-11-06T10:48:54;12.50;74.90
48589;DHT22;34369;51.174;6.738;2022-11-06T10:51:47;12.50;74.50
48589;DHT22;34369;51.174;6.738;2022-11-06T10:54:37;12.50;73.90
48589;DHT22;34369;51.174;6.738;2022-11-06T10:57:23;12.50;73.90
48589;DHT22;34369;51.174;6.738;2022-11-06T10:59:59;12.50;73.50
48589;DHT22;34369;51.174;6.738;2022-11-06T11:02:39;12.50;73.20
48589;DHT22;34369;51.174;6.738;2022-11-06T11:05:16;12.50;73.40
48589;DHT22;34369;51.174;6.738;2022-11-06T11:07:50;12.40;72.90
48589;DHT22;34369;51.174;6.738;2022-11-06T11:10:27;12.40;73.30
48589;DHT22;34369;51.174;6.738;2022-11-06T11:13:01;12.30;73.20
48589;DHT22;34369;51.174;6.738;2022-11-06T11:15:42;12.30;73.30
48589;DHT22;34369;51.174;6.738;2022-11-06T11:18:18;12.20;72.80
48589;DHT22;34369;51.174;6.738;2022-11-06T11:21:05;12.20;73.20
48589;DHT22;34369;51.174;6.738;2022-11-06T11:23:40;12.30;73.50
48589;DHT22;34369;51.174;6.738;2022-11-06T11:26:19;12.20;73.40
48589;DHT22;34369;51.174;6.738;2022-11-06T11:28:55;12.10;73.20
48589;DHT22;34369;51.174;6.738;2022-11-06T11:31:30;12.20;73.40
48589;DHT22;34369;51.174;6.738;2022-11-06T11:34:06;12.10;73.40
48589;DHT22;34369;51.174;6.738;2022-11-06T11:36:50;12.20;73.70
48589;DHT22;34369;51.174;6.738;2022-11-06T11:39:27;12.10;74.20
48589;DHT22;34369;51.174;6.738;2022-11-06T11:45:13;12.30;74.10
48589;DHT22;34369;51.174;6.738;2022-11-06T11:47:49;12.40;73.90
48589;DHT22;34369;51.174;6.738;2022-11-06T11:50:28;12.50;74.70
48589;DHT22;34369;51.174;6.738;2022-11-06T11:53:06;12.60;73.70
48589;DHT22;34369;51.174;6.738;2022-11-06T11:55:44;12.60;72.50
48589;DHT22;34369;51.174;6.738;2022-11-06T11:58:22;12.70;72.80
48589;DHT22;34369;51.174;6.738;2022-11-06T12:00:58;12.70;72.70
48589;DHT22;34369;51.174;6.738;2022-11-06T12:03:35;12.60;71.90
48589;DHT22;34369;51.174;6.738;2022-11-06T12:06:13;12.70;72.00
48589;DHT22;34369;51.174;6.738;2022-11-06T12:08:51;12.70;71.60
48589;DHT22;34369;51.174;6.738;2022-11-06T12:11:27;12.70;71.00
48589;DHT22;34369;51.174;6.738;2022-11-06T12:14:25;12.70;71.00
48589;DHT22;34369;51.174;6.738;2022-11-06T12:17:12;12.70;70.70
48589;DHT22;34369;51.174;6.738;2022-11-06T12:19:50;12.70;70.00
48589;DHT22;34369;51.174;6.738;2022-11-06T12:22:26;12.60;70.50
48589;DHT22;34369;51.174;6.738;2022-11-06T12:25:04;12.50;70.70
48589;DHT22;34369;51.174;6.738;2022-11-06T12:27:43;12.50;70.70
48589;DHT22;34369;51.174;6.738;2022-11-06T12:30:18;12.50;70.20
48589;DHT22;34369;51.174;6.738;2022-11-06T12:33:02;12.50;71.00
48589;DHT22;34369;51.174;6.738;2022-11-06T12:35:44;12.50;70.90
48589;DHT22;34369;51.174;6.738;2022-11-06T12:38:25;12.50;71.30
48589;DHT22;34369;51.174;6.738;2022-11-06T12:41:05;12.50;71.10
48589;DHT22;34369;51.174;6.738;2022-11-06T12:43:43;12.40;71.00
48589;DHT22;34369;51.174;6.738;2022-11-06T12:46:26;12.40;70.80
48589;DHT22;34369;51.174;6.738;2022-11-06T12:49:07;12.40;70.90
48589;DHT22;34369;51.174;6.738;2022-11-06T12:52:05;12.50;70.90
48589;DHT22;34369;51.174;6.738;2022-11-06T12:55:00;12.50;70.60
48589;DHT22;34369;51.174;6.738;2022-11-06T12:57:49;12.40;70.40
48589;DHT22;34369;51.174;6.738;2022-11-06T13:00:39;12.40;71.20
48589;DHT22;34369;51.174;6.738;2022-11-06T13:03:33;12.30;70.80
48589;DHT22;34369;51.174;6.738;2022-11-06T13:06:15;12.40;70.70
48589;DHT22;34369;51.174;6.738;2022-11-06T13:08:55;12.40;70.40
48589;DHT22;34369;51.174;6.738;2022-11-06T13:11:35;12.40;70.80
48589;DHT22;34369;51.174;6.738;2022-11-06T13:14:21;12.40;70.50
48589;DHT22;34369;51.174;6.738;2022-11-06T13:17:01;12.40;70.30
48589;DHT22;34369;51.174;6.738;2022-11-06T13:19:43;12.50;70.40
48589;DHT22;34369;51.174;6.738;2022-11-06T13:22:27;12.50;70.90
48589;DHT22;34369;51.174;6.738;2022-11-06T13:25:06;12.50;69.80
48589;DHT22;34369;51.174;6.738;2022-11-06T13:27:50;12.40;69.60
48589;DHT22;34369;51.174;6.738;2022-11-06T13:30:27;12.30;69.80
48589;DHT22;34369;51.174;6.738;2022-11-06T13:33:05;12.30;70.00
48589;DHT22;34369;51.174;6.738;2022-11-06T13:35:40;12.20;69.90
48589;DHT22;34369;51.174;6.738;2022-11-06T13:38:16;12.40;70.30
48589;DHT22;34369;51.174;6.738;2022-11-06T13:40:53;12.30;70.40
48589;DHT22;34369;51.174;6.738;2022-11-06T13:43:30;12.30;70.20
48589;DHT22;34369;51.174;6.738;2022-11-06T13:46:15;12.40;69.60
48589;DHT22;34369;51.174;6.738;2022-11-06T13:48:55;12.30;69.90
48589;DHT22;34369;51.174;6.738;2022-11-06T13:51:40;12.30;69.80
48589;DHT22;34369;51.174;6.738;2022-11-06T13:54:22;12.30;70.20
48589;DHT22;34369;51.174;6.738;2022-11-06T13:57:32;12.40;69.80
48589;DHT22;34369;51.174;6.738;2022-11-06T14:00:44;12.30;69.50
48589;DHT22;34369;51.174;6.738;2022-11-06T14:03:42;12.30;69.30
48589;DHT22;34369;51.174;6.738;2022-11-06T14:06:24;12.30;69.20
48589;DHT22;34369;51.174;6.738;2022-11-06T14:08:59;12.30;69.30
48589;DHT22;34369;51.174;6.738;2022-11-06T14:11:35;12.30;69.50
48589;DHT22;34369;51.174;6.738;2022-11-06T14:14:12;12.30;69.60
48589;DHT22;34369;51.174;6.738;2022-11-06T14:17:09;12.20;69.00
48589;DHT22;34369;51.174;6.738;2022-11-06T14:20:01;12.40;69.20
48589;DHT22;34369;51.174;6.738;2022-11-06T14:22:36;12.20;69.10
48589;DHT22;34369;51.174;6.738;2022-11-06T14:25:53;12.10;68.90
48589;DHT22;34369;51.174;6.738;2022-11-06T14:28:30;12.10;68.70
48589;DHT22;34369;51.174;6.738;2022-11-06T14:33:58;12.20;68.70
48589;DHT22;34369;51.174;6.738;2022-11-06T14:36:34;12.10;69.20
48589;DHT22;34369;51.174;6.738;2022-11-06T14:39:09;12.10;69.00
48589;DHT22;34369;51.174;6.738;2022-11-06T14:41:55;12.20;69.30
48589;DHT22;34369;51.174;6.738;2022-11-06T14:44:46;12.10;69.30
48589;DHT22;34369;51.174;6.738;2022-11-06T14:47:29;12.00;70.20
48589;DHT22;34369;51.174;6.738;2022-11-06T14:50:07;12.00;69.70
48589;DHT22;34369;51.174;6.738;2022-11-06T14:52:59;11.90;69.70
48589;DHT22;34369;51.174;6.738;2022-11-06T14:55:39;12.00;70.10
48589;DHT22;34369;51.174;6.738;2022-11-06T14:58:18;11.90;70.10
48589;DHT22;34369;51.174;6.738;2022-11-06T15:00:53;11.80;70.20
48589;DHT22;34369;51.174;6.738;2022-11-06T15:03:32;11.80;70.40
48589;DHT22;34369;51.174;6.738;2022-11-06T15:06:20;11.80;70.40
48589;DHT22;34369;51.174;6.738;2022-11-06T15:09:13;12.40;70.90
48589;DHT22;34369;51.174;6.738;2022-11-06T15:11:59;11.80;70.70
48589;DHT22;34369;51.174;6.738;2022-11-06T15:14:54;11.70;70.90
48589;DHT22;34369;51.174;6.738;2022-11-06T15:17:31;11.70;71.10
48589;DHT22;34369;51.174;6.738;2022-11-06T15:23:08;11.50;71.50
48589;DHT22;34369;51.174;6.738;2022-11-06T15:25:53;11.50;71.30
48589;DHT22;34369;51.174;6.738;2022-11-06T15:28:41;11.40;71.50
48589;DHT22;34369;51.174;6.738;2022-11-06T15:31:16;11.40;71.90
48589;DHT22;34369;51.174;6.738;2022-11-06T15:33:56;11.30;72.40
48589;DHT22;34369;51.174;6.738;2022-11-06T15:36:36;11.30;72.70
48589;DHT22;34369;51.174;6.738;2022-11-06T15:39:30;11.20;72.70
48589;DHT22;34369;51.174;6.738;2022-11-06T15:42:15;11.10;72.80
48589;DHT22;34369;51.174;6.738;2022-11-06T15:44:49;11.10;73.70
48589;DHT22;34369;51.174;6.738;2022-11-06T15:47:23;11.10;73.90
48589;DHT22;34369;51.174;6.738;2022-11-06T15:50:13;10.90;73.90
48589;DHT22;34369;51.174;6.738;2022-11-06T15:52:46;10.80;75.00
48589;DHT22;34369;51.174;6.738;2022-11-06T15:55:27;10.70;74.90
48589;DHT22;34369;51.174;6.738;2022-11-06T15:58:12;10.70;75.10
48589;DHT22;34369;51.174;6.738;2022-11-06T16:00:57;10.60;75.60
48589;DHT22;34369;51.174;6.738;2022-11-06T16:03:41;10.60;76.00
48589;DHT22;34369;51.174;6.738;2022-11-06T16:06:14;10.50;76.00
48589;DHT22;34369;51.174;6.738;2022-11-06T16:08:48;10.40;76.70
48589;DHT22;34369;51.174;6.738;2022-11-06T16:11:22;10.30;77.00
48589;DHT22;34369;51.174;6.738;2022-11-06T16:13:56;10.20;76.80
48589;DHT22;34369;51.174;6.738;2022-11-06T16:16:32;10.20;77.30
48589;DHT22;34369;51.174;6.738;2022-11-06T16:19:19;10.10;77.20
48589;DHT22;34369;51.174;6.738;2022-11-06T16:21:57;10.10;77.00
48589;DHT22;34369;51.174;6.738;2022-11-06T16:24:39;10.10;77.20
48589;DHT22;34369;51.174;6.738;2022-11-06T16:27:14;10.10;77.10
48589;DHT22;34369;51.174;6.738;2022-11-06T16:29:49;9.90;77.20
48589;DHT22;34369;51.174;6.738;2022-11-06T16:32:25;10.10;77.60
48589;DHT22;34369;51.174;6.738;2022-11-06T16:34:59;9.90;77.30
48589;DHT22;34369;51.174;6.738;2022-11-06T16:37:36;9.90;77.30
48589;DHT22;34369;51.174;6.738;2022-11-06T16:40:46;9.80;77.10
48589;DHT22;34369;51.174;6.738;2022-11-06T16:43:21;9.80;77.30
48589;DHT22;34369;51.174;6.738;2022-11-06T16:45:56;9.80;77.30
48589;DHT22;34369;51.174;6.738;2022-11-06T16:48:35;9.80;77.20
48589;DHT22;34369;51.174;6.738;2022-11-06T16:51:10;9.70;77.30
48589;DHT22;34369;51.174;6.738;2022-11-06T16:53:48;9.70;77.30
48589;DHT22;34369;51.174;6.738;2022-11-06T16:56:25;9.60;77.60
48589;DHT22;34369;51.174;6.738;2022-11-06T16:59:04;9.60;77.60
48589;DHT22;34369;51.174;6.738;2022-11-06T17:01:41;9.60;77.90
48589;DHT22;34369;51.174;6.738;2022-11-06T17:04:19;9.60;78.00
48589;DHT22;34369;51.174;6.738;2022-11-06T17:06:53;9.70;77.50
48589;DHT22;34369;51.174;6.738;2022-11-06T17:09:29;9.60;77.20
48589;DHT22;34369;51.174;6.738;2022-11-06T17:12:02;9.50;76.80
48589;DHT22;34369;51.174;6.738;2022-11-06T17:14:42;9.50;76.70